Terminal Aerodrome Forecast
Issued by NWS Binghamton, NY

Home | Current Version | Previous Version | Text Only | Print | Product List | Glossary On
Versions: 1 2 3 4 5 6 7 8 9 10 11 12 13 14 15 16 17 18 19
000
FTUS41 KBGM 231100
TAFBGM
TAF
KBGM 231128Z 2312/2412 22008KT P6SM SKC
     FM231400 24008KT P6SM BKN040
      TEMPO 2318/2321 4SM TSRA OVC035CB
     FM232100 33007KT P6SM OVC040
     FM240000 34006KT P6SM OVC040=

USA.gov is the U.S. government's official web portal to all federal, state and local government web resources and services.